sensor_id;sensor_type;location;lat;lon;timestamp;P1;durP1;ratioP1;P2;durP2;ratioP2
15281;SDS011;7742;44.320;19.820;2023-04-25T00:01:32;17.93;;;16.93;;
15281;SDS011;7742;44.320;19.820;2023-04-25T00:04:01;16.73;;;15.57;;
15281;SDS011;7742;44.320;19.820;2023-04-25T00:06:28;16.57;;;15.57;;
15281;SDS011;7742;44.320;19.820;2023-04-25T00:08:55;16.47;;;15.57;;
15281;SDS011;7742;44.320;19.820;2023-04-25T00:11:22;16.67;;;15.73;;
15281;SDS011;7742;44.320;19.820;2023-04-25T00:13:49;16.20;;;15.30;;
15281;SDS011;7742;44.320;19.820;2023-04-25T00:16:18;16.00;;;15.20;;
15281;SDS011;7742;44.320;19.820;2023-04-25T00:18:46;17.20;;;16.30;;
15281;SDS011;7742;44.320;19.820;2023-04-25T00:21:16;14.30;;;13.57;;
15281;SDS011;7742;44.320;19.820;2023-04-25T00:23:43;14.40;;;13.70;;
15281;SDS011;7742;44.320;19.820;2023-04-25T00:26:11;15.60;;;14.80;;
15281;SDS011;7742;44.320;19.820;2023-04-25T00:28:38;15.00;;;14.20;;
15281;SDS011;7742;44.320;19.820;2023-04-25T00:31:05;14.00;;;13.33;;
15281;SDS011;7742;44.320;19.820;2023-04-25T00:33:32;14.30;;;13.60;;
15281;SDS011;7742;44.320;19.820;2023-04-25T00:36:01;14.97;;;14.17;;
15281;SDS011;7742;44.320;19.820;2023-04-25T00:38:28;14.77;;;14.07;;
15281;SDS011;7742;44.320;19.820;2023-04-25T00:40:55;14.53;;;13.83;;
15281;SDS011;7742;44.320;19.820;2023-04-25T00:43:23;15.30;;;14.30;;
15281;SDS011;7742;44.320;19.820;2023-04-25T00:45:51;12.27;;;11.57;;
15281;SDS011;7742;44.320;19.820;2023-04-25T00:48:19;13.83;;;13.10;;
15281;SDS011;7742;44.320;19.820;2023-04-25T00:50:48;13.17;;;12.47;;
15281;SDS011;7742;44.320;19.820;2023-04-25T00:53:21;11.93;;;11.23;;
15281;SDS011;7742;44.320;19.820;2023-04-25T00:55:48;12.43;;;11.80;;
15281;SDS011;7742;44.320;19.820;2023-04-25T00:58:16;12.27;;;11.67;;
15281;SDS011;7742;44.320;19.820;2023-04-25T01:00:43;12.10;;;11.50;;
15281;SDS011;7742;44.320;19.820;2023-04-25T01:03:10;11.10;;;10.60;;
15281;SDS011;7742;44.320;19.820;2023-04-25T01:05:37;11.30;;;10.70;;
15281;SDS011;7742;44.320;19.820;2023-04-25T01:08:04;10.37;;;9.87;;
15281;SDS011;7742;44.320;19.820;2023-04-25T01:10:33;10.83;;;10.33;;
15281;SDS011;7742;44.320;19.820;2023-04-25T01:13:03;11.60;;;10.80;;
15281;SDS011;7742;44.320;19.820;2023-04-25T01:15:32;9.13;;;8.60;;
15281;SDS011;7742;44.320;19.820;2023-04-25T01:18:02;9.20;;;8.80;;
15281;SDS011;7742;44.320;19.820;2023-04-25T01:24:11;10.23;;;9.73;;
15281;SDS011;7742;44.320;19.820;2023-04-25T01:26:38;9.93;;;9.40;;
15281;SDS011;7742;44.320;19.820;2023-04-25T01:29:09;11.07;;;10.57;;
15281;SDS011;7742;44.320;19.820;2023-04-25T01:31:36;11.20;;;10.70;;
15281;SDS011;7742;44.320;19.820;2023-04-25T01:34:04;11.40;;;10.90;;
15281;SDS011;7742;44.320;19.820;2023-04-25T01:36:31;11.23;;;10.73;;
15281;SDS011;7742;44.320;19.820;2023-04-25T01:38:58;12.50;;;11.60;;
15281;SDS011;7742;44.320;19.820;2023-04-25T01:41:26;11.90;;;11.33;;
15281;SDS011;7742;44.320;19.820;2023-04-25T01:43:53;12.20;;;11.70;;
15281;SDS011;7742;44.320;19.820;2023-04-25T01:46:20;13.93;;;13.20;;
15281;SDS011;7742;44.320;19.820;2023-04-25T01:48:47;12.90;;;12.30;;
15281;SDS011;7742;44.320;19.820;2023-04-25T01:51:14;11.30;;;10.70;;
15281;SDS011;7742;44.320;19.820;2023-04-25T01:53:41;11.60;;;11.00;;
15281;SDS011;7742;44.320;19.820;2023-04-25T01:56:09;10.87;;;10.30;;
15281;SDS011;7742;44.320;19.820;2023-04-25T01:58:37;10.57;;;9.97;;
15281;SDS011;7742;44.320;19.820;2023-04-25T02:01:04;11.03;;;10.33;;
15281;SDS011;7742;44.320;19.820;2023-04-25T02:03:31;11.27;;;10.70;;
15281;SDS011;7742;44.320;19.820;2023-04-25T02:05:58;11.27;;;10.20;;
15281;SDS011;7742;44.320;19.820;2023-04-25T02:08:25;9.40;;;8.90;;
15281;SDS011;7742;44.320;19.820;2023-04-25T02:10:52;9.50;;;9.00;;
15281;SDS011;7742;44.320;19.820;2023-04-25T02:13:19;9.73;;;9.13;;
15281;SDS011;7742;44.320;19.820;2023-04-25T02:15:47;9.30;;;8.80;;
15281;SDS011;7742;44.320;19.820;2023-04-25T02:18:14;9.17;;;8.60;;
15281;SDS011;7742;44.320;19.820;2023-04-25T02:20:42;9.60;;;9.00;;
15281;SDS011;7742;44.320;19.820;2023-04-25T02:23:09;10.10;;;9.60;;
15281;SDS011;7742;44.320;19.820;2023-04-25T02:25:36;9.90;;;9.40;;
15281;SDS011;7742;44.320;19.820;2023-04-25T02:28:03;10.33;;;9.83;;
15281;SDS011;7742;44.320;19.820;2023-04-25T02:30:30;9.60;;;8.93;;
15281;SDS011;7742;44.320;19.820;2023-04-25T02:32:58;9.30;;;8.90;;
15281;SDS011;7742;44.320;19.820;2023-04-25T02:35:25;9.70;;;9.20;;
15281;SDS011;7742;44.320;19.820;2023-04-25T02:37:52;9.60;;;9.10;;
15281;SDS011;7742;44.320;19.820;2023-04-25T02:40:19;10.43;;;9.93;;
15281;SDS011;7742;44.320;19.820;2023-04-25T02:42:59;10.00;;;9.40;;
15281;SDS011;7742;44.320;19.820;2023-04-25T02:45:26;8.37;;;7.97;;
15281;SDS011;7742;44.320;19.820;2023-04-25T02:47:53;9.50;;;9.00;;
15281;SDS011;7742;44.320;19.820;2023-04-25T02:50:22;10.00;;;9.40;;
15281;SDS011;7742;44.320;19.820;2023-04-25T02:52:49;10.73;;;10.23;;
15281;SDS011;7742;44.320;19.820;2023-04-25T02:55:15;10.17;;;9.67;;
15281;SDS011;7742;44.320;19.820;2023-04-25T02:57:42;11.40;;;10.80;;
15281;SDS011;7742;44.320;19.820;2023-04-25T03:00:10;11.03;;;10.40;;
15281;SDS011;7742;44.320;19.820;2023-04-25T03:02:39;10.90;;;10.30;;
15281;SDS011;7742;44.320;19.820;2023-04-25T03:05:06;9.80;;;9.40;;
15281;SDS011;7742;44.320;19.820;2023-04-25T03:07:35;10.37;;;9.77;;
15281;SDS011;7742;44.320;19.820;2023-04-25T03:10:05;9.70;;;9.20;;
15281;SDS011;7742;44.320;19.820;2023-04-25T03:12:32;9.80;;;9.33;;
15281;SDS011;7742;44.320;19.820;2023-04-25T03:14:59;9.33;;;8.93;;
15281;SDS011;7742;44.320;19.820;2023-04-25T03:17:26;9.30;;;8.90;;
15281;SDS011;7742;44.320;19.820;2023-04-25T03:19:52;10.60;;;10.00;;
15281;SDS011;7742;44.320;19.820;2023-04-25T03:22:19;9.60;;;9.10;;
15281;SDS011;7742;44.320;19.820;2023-04-25T03:24:48;10.60;;;10.10;;
15281;SDS011;7742;44.320;19.820;2023-04-25T03:27:15;10.23;;;9.83;;
15281;SDS011;7742;44.320;19.820;2023-04-25T03:29:42;10.90;;;10.23;;
15281;SDS011;7742;44.320;19.820;2023-04-25T03:32:08;11.03;;;10.37;;
15281;SDS011;7742;44.320;19.820;2023-04-25T03:34:35;10.77;;;10.23;;
15281;SDS011;7742;44.320;19.820;2023-04-25T03:37:02;10.93;;;10.33;;
15281;SDS011;7742;44.320;19.820;2023-04-25T03:39:29;11.30;;;10.63;;
15281;SDS011;7742;44.320;19.820;2023-04-25T03:41:57;9.10;;;8.63;;
15281;SDS011;7742;44.320;19.820;2023-04-25T03:44:25;10.50;;;10.00;;
15281;SDS011;7742;44.320;19.820;2023-04-25T03:46:51;10.20;;;9.73;;
15281;SDS011;7742;44.320;19.820;2023-04-25T03:49:18;11.33;;;10.73;;
15281;SDS011;7742;44.320;19.820;2023-04-25T03:51:45;12.17;;;11.50;;
15281;SDS011;7742;44.320;19.820;2023-04-25T03:54:12;10.70;;;10.20;;
15281;SDS011;7742;44.320;19.820;2023-04-25T03:56:39;9.67;;;9.17;;
15281;SDS011;7742;44.320;19.820;2023-04-25T03:59:12;9.80;;;9.30;;
15281;SDS011;7742;44.320;19.820;2023-04-25T04:01:53;9.37;;;8.93;;
15281;SDS011;7742;44.320;19.820;2023-04-25T04:04:22;14.60;;;13.80;;
15281;SDS011;7742;44.320;19.820;2023-04-25T04:06:49;14.70;;;13.90;;
15281;SDS011;7742;44.320;19.820;2023-04-25T04:09:16;13.03;;;12.40;;
15281;SDS011;7742;44.320;19.820;2023-04-25T04:11:43;12.27;;;11.67;;
15281;SDS011;7742;44.320;19.820;2023-04-25T04:14:14;11.60;;;10.97;;
15281;SDS011;7742;44.320;19.820;2023-04-25T04:16:43;9.63;;;9.13;;
15281;SDS011;7742;44.320;19.820;2023-04-25T04:22:54;11.97;;;11.17;;
15281;SDS011;7742;44.320;19.820;2023-04-25T04:25:21;9.80;;;9.40;;
15281;SDS011;7742;44.320;19.820;2023-04-25T04:27:49;8.47;;;8.07;;
15281;SDS011;7742;44.320;19.820;2023-04-25T04:30:21;8.90;;;8.50;;
15281;SDS011;7742;44.320;19.820;2023-04-25T04:32:49;7.83;;;7.47;;
15281;SDS011;7742;44.320;19.820;2023-04-25T04:35:16;7.40;;;7.00;;
15281;SDS011;7742;44.320;19.820;2023-04-25T04:37:43;10.00;;;9.50;;
